Time;durP1;ratioP1;P1;durP2;ratioP2;P2;SDS_P1;SDS_P2;PMS_P1;PMS_P2;Temp;Humidity;BMP_temperature;BMP_pressure;BME280_temperature;BME280_humidity;BME280_pressure;Samples;Min_cycle;Max_cycle;Signal;HPM_P1;HPM_P2
2023/05/22 00:02:00;;;;;;;11.77;7.35;;;;;;;;;;6319936;22;20166;-89
2023/05/22 00:05:05;;;;;;;14.27;7.30;;;;;;;;;;6322988;22;20164;-90
2023/05/22 00:08:10;;;;;;;14.57;7.45;;;;;;;;;;6320423;22;20172;-93
2023/05/22 00:11:17;;;;;;;15.10;7.75;;;;;;;;;;6318525;22;20169;-92
2023/05/22 00:14:22;;;;;;;17.63;7.50;;;;;;;;;;6321184;22;20537;-91
2023/05/22 00:17:33;;;;;;;13.80;7.57;;;;;;;;;;6301499;22;20279;-93
2023/05/22 00:20:39;;;;;;;12.43;8.10;;;;;;;;;;6319097;22;20200;-91
2023/05/22 00:23:44;;;;;;;12.07;7.20;;;;;;;;;;6320065;22;20177;-91
2023/05/22 00:30:41;;;;;;;13.55;7.63;;;;;;;;;;6301515;22;20157;-88
2023/05/22 00:33:46;;;;;;;14.35;7.75;;;;;;;;;;6302153;22;20169;-90
2023/05/22 00:36:51;;;;;;;17.75;8.60;;;;;;;;;;6301260;22;20197;-92
2023/05/22 00:39:56;;;;;;;12.25;7.65;;;;;;;;;;6318648;22;20165;-91
2023/05/22 00:43:07;;;;;;;12.73;7.78;;;;;;;;;;6319130;22;20200;-90
2023/05/22 00:46:14;;;;;;;15.65;8.27;;;;;;;;;;6317695;22;20173;-91
2023/05/22 00:49:19;;;;;;;11.90;7.90;;;;;;;;;;6301613;22;20185;-90
2023/05/22 00:52:24;;;;;;;15.32;7.53;;;;;;;;;;6319924;22;20168;-91
2023/05/22 00:55:30;;;;;;;12.85;7.53;;;;;;;;;;6319507;22;20179;-90
2023/05/22 00:58:36;;;;;;;12.80;7.68;;;;;;;;;;6301920;22;20184;-90
2023/05/22 01:01:43;;;;;;;16.73;7.65;;;;;;;;;;6302650;22;20184;-92
2023/05/22 01:04:49;;;;;;;13.65;8.13;;;;;;;;;;6319551;22;20161;-89
2023/05/22 01:07:55;;;;;;;12.30;7.93;;;;;;;;;;6319904;22;20156;-89
2023/05/22 01:11:05;;;;;;;13.90;8.02;;;;;;;;;;6301042;22;20165;-90
2023/05/22 01:14:18;;;;;;;18.88;8.27;;;;;;;;;;6323225;22;20169;-89
2023/05/22 01:17:33;;;;;;;15.32;8.20;;;;;;;;;;6301262;22;20213;-89
2023/05/22 01:20:41;;;;;;;14.10;8.27;;;;;;;;;;6321103;22;20169;-90
2023/05/22 01:23:57;;;;;;;18.35;8.07;;;;;;;;;;6302026;22;20173;-92
2023/05/22 01:27:15;;;;;;;12.07;8.10;;;;;;;;;;6320990;22;20161;-91
2023/05/22 01:30:39;;;;;;;15.50;7.30;;;;;;;;;;6320145;22;20486;-91
2023/05/22 01:33:46;;;;;;;17.25;8.23;;;;;;;;;;6320632;22;20512;-90
2023/05/22 01:36:52;;;;;;;13.02;7.93;;;;;;;;;;6319635;22;20498;-90
2023/05/22 01:39:58;;;;;;;13.95;8.05;;;;;;;;;;6320816;22;20141;-91
2023/05/22 01:43:04;;;;;;;15.32;8.20;;;;;;;;;;6320393;22;20292;-90
2023/05/22 01:46:09;;;;;;;17.25;9.20;;;;;;;;;;6302757;22;20161;-90
2023/05/22 01:49:16;;;;;;;14.68;8.02;;;;;;;;;;6320607;22;20168;-91
2023/05/22 01:52:25;;;;;;;17.08;9.13;;;;;;;;;;6320131;22;20485;-90
2023/05/22 01:55:34;;;;;;;13.90;8.57;;;;;;;;;;6302556;22;20202;-91
2023/05/22 01:58:43;;;;;;;17.23;8.98;;;;;;;;;;6320062;22;20152;-91
2023/05/22 02:01:51;;;;;;;14.60;9.13;;;;;;;;;;6302220;22;20236;-90
2023/05/22 02:05:00;;;;;;;14.38;8.68;;;;;;;;;;6300580;22;20239;-92
2023/05/22 02:08:06;;;;;;;16.05;8.65;;;;;;;;;;6319725;22;20169;-93
2023/05/22 02:11:13;;;;;;;16.42;9.52;;;;;;;;;;6319565;22;20149;-91
2023/05/22 02:14:19;;;;;;;14.73;8.52;;;;;;;;;;6302376;22;20161;-92
2023/05/22 02:17:24;;;;;;;16.50;8.57;;;;;;;;;;6319886;22;20196;-92
2023/05/22 02:20:31;;;;;;;15.93;9.10;;;;;;;;;;6319405;22;20161;-90
2023/05/22 02:23:36;;;;;;;16.55;8.25;;;;;;;;;;6317927;22;20161;-91
2023/05/22 02:26:53;;;;;;;13.90;7.85;;;;;;;;;;6319702;22;20168;-92
2023/05/22 02:29:59;;;;;;;15.52;8.05;;;;;;;;;;6320596;22;20253;-91
2023/05/22 02:33:05;;;;;;;13.50;8.10;;;;;;;;;;6319729;22;20608;-91
2023/05/22 02:36:13;;;;;;;15.27;9.02;;;;;;;;;;6320247;22;20165;-93
2023/05/22 02:39:18;;;;;;;18.70;8.98;;;;;;;;;;6319536;22;20215;-93
2023/05/22 02:42:24;;;;;;;17.42;9.82;;;;;;;;;;6320508;22;20157;-90
2023/05/22 02:45:29;;;;;;;16.13;9.18;;;;;;;;;;6319719;22;20165;-90
2023/05/22 02:48:35;;;;;;;15.23;8.90;;;;;;;;;;6319706;22;20240;-90
2023/05/22 02:51:46;;;;;;;16.80;9.20;;;;;;;;;;6319745;22;20580;-91
2023/05/22 02:54:52;;;;;;;15.98;9.15;;;;;;;;;;6300603;22;20165;-89
2023/05/22 02:57:57;;;;;;;18.05;8.73;;;;;;;;;;6317504;22;20248;-89
2023/05/22 03:01:05;;;;;;;17.13;9.02;;;;;;;;;;6319398;22;20280;-90
2023/05/22 03:04:13;;;;;;;14.85;8.52;;;;;;;;;;6317881;22;20284;-91
2023/05/22 03:07:21;;;;;;;16.83;8.90;;;;;;;;;;6299267;22;20180;-91
2023/05/22 03:10:26;;;;;;;19.92;9.30;;;;;;;;;;6316650;22;20200;-92
2023/05/22 03:13:31;;;;;;;17.58;9.68;;;;;;;;;;6317120;22;20193;-91
2023/05/22 03:16:41;;;;;;;18.25;9.60;;;;;;;;;;6298693;22;20165;-94
2023/05/22 03:19:46;;;;;;;19.02;9.10;;;;;;;;;;6316980;22;20166;-92
2023/05/22 03:22:57;;;;;;;19.40;9.23;;;;;;;;;;6300298;22;20180;-91
2023/05/22 03:26:02;;;;;;;16.40;8.90;;;;;;;;;;6315384;22;20276;-91
2023/05/22 03:29:11;;;;;;;17.90;9.57;;;;;;;;;;6316831;22;20172;-92
2023/05/22 03:32:18;;;;;;;14.55;8.60;;;;;;;;;;6316822;22;20165;-91
2023/05/22 03:35:25;;;;;;;17.52;8.93;;;;;;;;;;6316918;22;20165;-91
2023/05/22 03:38:33;;;;;;;17.42;9.20;;;;;;;;;;6317148;22;20193;-91
2023/05/22 03:41:38;;;;;;;16.83;9.13;;;;;;;;;;6316674;22;20240;-90
2023/05/22 03:44:44;;;;;;;14.23;8.50;;;;;;;;;;6319326;22;20163;-93
2023/05/22 03:47:50;;;;;;;20.35;9.32;;;;;;;;;;6318128;22;20169;-90
2023/05/22 03:50:55;;;;;;;14.93;9.05;;;;;;;;;;6266853;22;1222248;-92
2023/05/22 03:54:02;;;;;;;17.27;9.55;;;;;;;;;;6319230;22;20169;-90
2023/05/22 03:57:07;;;;;;;17.05;8.80;;;;;;;;;;6319003;22;20517;-90
2023/05/22 04:00:18;;;;;;;15.00;9.18;;;;;;;;;;6320014;22;20173;-89
2023/05/22 04:03:23;;;;;;;16.60;9.52;;;;;;;;;;6320418;22;20181;-90
2023/05/22 04:06:31;;;;;;;17.38;9.43;;;;;;;;;;6321102;22;20607;-92
2023/05/22 04:09:38;;;;;;;21.23;10.35;;;;;;;;;;6319746;22;20247;-90
2023/05/22 04:12:46;;;;;;;18.30;10.18;;;;;;;;;;6320412;22;20153;-91
2023/05/22 04:15:52;;;;;;;48.25;13.82;;;;;;;;;;6321628;22;20165;-92
2023/05/22 04:18:57;;;;;;;27.67;11.50;;;;;;;;;;6322905;22;20264;-90
2023/05/22 04:22:33;;;;;;;20.88;10.82;;;;;;;;;;6304717;22;20779;-92
2023/05/22 04:25:39;;;;;;;23.85;11.30;;;;;;;;;;6324125;22;20181;-91
2023/05/22 04:28:45;;;;;;;26.05;11.18;;;;;;;;;;6322747;22;20231;-90
2023/05/22 04:31:53;;;;;;;16.98;10.00;;;;;;;;;;6322572;22;20165;-90
2023/05/22 04:34:59;;;;;;;22.23;10.57;;;;;;;;;;6322999;22;20165;-91
2023/05/22 04:38:05;;;;;;;23.40;10.70;;;;;;;;;;6321735;22;20169;-89
2023/05/22 04:41:21;;;;;;;22.98;10.80;;;;;;;;;;6324578;22;20152;-91
2023/05/22 04:44:29;;;;;;;18.73;10.50;;;;;;;;;;6324303;22;20239;-89
2023/05/22 04:47:36;;;;;;;20.80;10.50;;;;;;;;;;6323195;22;20317;-91
2023/05/22 04:50:45;;;;;;;23.65;9.98;;;;;;;;;;6323173;22;20259;-92
2023/05/22 04:53:50;;;;;;;21.60;10.27;;;;;;;;;;6320978;22;20491;-88
2023/05/22 04:56:57;;;;;;;20.77;10.90;;;;;;;;;;6303428;22;20169;-91
2023/05/22 05:00:05;;;;;;;25.40;11.20;;;;;;;;;;6322289;22;20173;-91
2023/05/22 05:03:12;;;;;;;23.75;11.07;;;;;;;;;;6305740;22;20169;-92
2023/05/22 05:06:20;;;;;;;23.92;10.32;;;;;;;;;;6323687;22;20650;-92
2023/05/22 05:09:26;;;;;;;18.23;10.88;;;;;;;;;;6305628;22;20189;-88
2023/05/22 05:12:32;;;;;;;26.17;10.65;;;;;;;;;;6322990;22;20208;-90
2023/05/22 05:15:38;;;;;;;17.17;9.70;;;;;;;;;;6324218;22;20165;-92
2023/05/22 05:18:54;;;;;;;16.42;9.80;;;;;;;;;;6328802;22;20212;-89
2023/05/22 05:25:54;;;;;;;20.38;10.27;;;;;;;;;;6309113;22;20149;-90
2023/05/22 05:29:07;;;;;;;18.40;9.88;;;;;;;;;;6325878;22;20300;-90
2023/05/22 05:32:22;;;;;;;18.48;10.75;;;;;;;;;;6326405;22;20169;-89
2023/05/22 05:42:22;;;;;;;20.40;10.02;;;;;;;;;;6325620;22;20165;-90
2023/05/22 05:45:30;;;;;;;18.73;10.00;;;;;;;;;;6325189;22;20212;-90
2023/05/22 05:48:38;;;;;;;16.13;9.75;;;;;;;;;;6326222;22;20197;-92
2023/05/22 05:51:45;;;;;;;20.20;9.75;;;;;;;;;;6324014;22;20224;-88
2023/05/22 05:54:51;;;;;;;18.77;9.85;;;;;;;;;;6327240;22;20153;-88
2023/05/22 05:58:02;;;;;;;20.70;10.35;;;;;;;;;;6306560;22;20592;-90
2023/05/22 06:01:26;;;;;;;20.42;10.25;;;;;;;;;;6308763;22;20166;-90
2023/05/22 06:11:12;;;;;;;19.20;9.75;;;;;;;;;;6325981;22;20187;-90
2023/05/22 06:14:29;;;;;;;20.90;9.95;;;;;;;;;;6325780;22;20624;-90
2023/05/22 06:17:42;;;;;;;17.77;9.02;;;;;;;;;;6308847;22;20168;-91
2023/05/22 06:20:48;;;;;;;20.33;9.50;;;;;;;;;;6326556;22;20149;-90
2023/05/22 06:24:19;;;;;;;18.27;9.02;;;;;;;;;;6324285;22;20233;-90
2023/05/22 06:27:26;;;;;;;15.50;8.93;;;;;;;;;;6323289;22;20165;-90
2023/05/22 06:30:33;;;;;;;19.40;8.07;;;;;;;;;;6326604;22;20184;-91
2023/05/22 06:33:43;;;;;;;16.20;8.40;;;;;;;;;;6324773;22;20189;-91
2023/05/22 06:36:50;;;;;;;20.98;8.45;;;;;;;;;;6325249;22;20193;-91
2023/05/22 06:39:58;;;;;;;16.08;7.45;;;;;;;;;;6324622;22;20242;-92
2023/05/22 06:43:19;;;;;;;14.75;7.75;;;;;;;;;;6305725;22;20235;-91
2023/05/22 06:46:45;;;;;;;10.35;6.78;;;;;;;;;;6327035;22;20157;-91
2023/05/22 06:50:00;;;;;;;14.18;7.25;;;;;;;;;;6324747;22;20887;-91
2023/05/22 06:53:05;;;;;;;12.43;6.85;;;;;;;;;;6324886;22;20166;-91
2023/05/22 06:56:11;;;;;;;12.07;6.88;;;;;;;;;;6327675;22;20204;-91
2023/05/22 06:59:39;;;;;;;12.48;6.93;;;;;;;;;;6325238;22;20270;-93
2023/05/22 07:02:48;;;;;;;12.43;6.82;;;;;;;;;;6326263;22;20153;-91
2023/05/22 07:06:18;;;;;;;12.90;6.20;;;;;;;;;;6326643;22;20163;-91
2023/05/22 07:09:23;;;;;;;11.68;6.20;;;;;;;;;;6325167;22;20276;-90
2023/05/22 07:12:29;;;;;;;11.23;5.50;;;;;;;;;;6305791;22;20169;-90
2023/05/22 07:15:35;;;;;;;9.98;5.65;;;;;;;;;;6324906;22;20176;-92
2023/05/22 07:18:55;;;;;;;8.15;5.07;;;;;;;;;;6325384;22;20197;-88
2023/05/22 07:22:29;;;;;;;7.10;5.05;;;;;;;;;;6324336;22;20176;-90
2023/05/22 07:25:37;;;;;;;9.73;5.35;;;;;;;;;;6307965;22;20239;-93
2023/05/22 07:28:43;;;;;;;10.70;5.38;;;;;;;;;;6324734;22;20176;-92
2023/05/22 07:31:52;;;;;;;6.85;4.78;;;;;;;;;;6326914;22;20160;-91
2023/05/22 07:34:59;;;;;;;11.85;4.88;;;;;;;;;;6323324;22;20168;-90
2023/05/22 07:41:36;;;;;;;8.27;4.47;;;;;;;;;;6325825;22;20241;-91
2023/05/22 07:44:41;;;;;;;12.07;5.40;;;;;;;;;;6323416;22;20165;-91
2023/05/22 07:47:47;;;;;;;7.10;4.43;;;;;;;;;;6321666;22;20247;-91
2023/05/22 07:50:52;;;;;;;10.43;5.40;;;;;;;;;;6304867;22;20214;-92
2023/05/22 07:53:58;;;;;;;9.65;4.72;;;;;;;;;;6324081;22;20206;-90
2023/05/22 07:57:06;;;;;;;9.32;4.70;;;;;;;;;;6305774;22;20164;-92
2023/05/22 08:00:15;;;;;;;12.02;4.88;;;;;;;;;;6323494;22;20600;-94
2023/05/22 08:03:21;;;;;;;10.82;4.75;;;;;;;;;;6305865;22;20195;-89
2023/05/22 08:06:26;;;;;;;7.93;4.95;;;;;;;;;;6324640;22;20164;-91
2023/05/22 08:09:31;;;;;;;9.68;4.70;;;;;;;;;;6325080;22;20156;-89
2023/05/22 08:12:40;;;;;;;6.40;4.35;;;;;;;;;;6306650;22;20176;-90
2023/05/22 08:15:46;;;;;;;6.90;4.80;;;;;;;;;;6326842;22;20165;-92
2023/05/22 08:19:18;;;;;;;10.45;4.40;;;;;;;;;;6325035;22;20272;-92
2023/05/22 08:22:23;;;;;;;8.07;4.65;;;;;;;;;;6325841;22;20152;-90
2023/05/22 08:25:28;;;;;;;10.90;4.60;;;;;;;;;;6327338;22;20172;-93
2023/05/22 08:28:36;;;;;;;5.63;3.83;;;;;;;;;;6325764;22;20164;-93
2023/05/22 08:31:41;;;;;;;7.65;4.28;;;;;;;;;;6325470;22;20169;-91
2023/05/22 08:34:47;;;;;;;8.73;4.60;;;;;;;;;;6307014;22;20212;-91
2023/05/22 08:38:02;;;;;;;7.18;4.65;;;;;;;;;;6324381;22;20200;-91
2023/05/22 08:41:08;;;;;;;6.93;4.25;;;;;;;;;;6325829;22;20152;-91
2023/05/22 08:44:15;;;;;;;11.70;4.45;;;;;;;;;;6323460;22;20229;-93
2023/05/22 08:47:20;;;;;;;8.27;4.00;;;;;;;;;;6306052;22;20240;-91
2023/05/22 08:50:26;;;;;;;6.25;4.15;;;;;;;;;;6323234;22;20302;-92
2023/05/22 08:53:35;;;;;;;11.15;4.57;;;;;;;;;;6306517;22;20167;-91
2023/05/22 08:56:41;;;;;;;12.10;4.80;;;;;;;;;;6324008;22;20164;-92
2023/05/22 08:59:48;;;;;;;9.57;4.40;;;;;;;;;;6307080;22;20248;-92
2023/05/22 09:02:54;;;;;;;8.23;4.32;;;;;;;;;;6327163;22;20180;-91
2023/05/22 09:06:00;;;;;;;7.97;4.47;;;;;;;;;;6309370;22;20209;-92
2023/05/22 09:09:06;;;;;;;11.05;4.75;;;;;;;;;;6328100;22;20183;-92
2023/05/22 09:12:12;;;;;;;7.88;3.97;;;;;;;;;;6307836;22;20165;-92
2023/05/22 09:15:28;;;;;;;7.35;4.28;;;;;;;;;;6327816;22;20165;-92
2023/05/22 09:18:33;;;;;;;4.95;3.72;;;;;;;;;;6326866;22;20204;-91
2023/05/22 09:21:39;;;;;;;7.10;4.25;;;;;;;;;;6327658;22;20175;-92
2023/05/22 11:30:58;;;;;;;8.15;3.80;;;;;;;;;;6244015;22;21136;-92
2023/05/22 11:40:42;;;;;;;5.72;3.90;;;;;;;;;;6284952;22;20169;-94
2023/05/22 11:43:49;;;;;;;6.57;3.70;;;;;;;;;;6262870;22;20220;-91
2023/05/22 11:46:57;;;;;;;5.10;3.63;;;;;;;;;;6281120;22;20304;-92
2023/05/22 11:50:05;;;;;;;9.23;3.78;;;;;;;;;;6264683;22;20285;-89
2023/05/22 11:53:11;;;;;;;4.50;3.53;;;;;;;;;;6283293;22;20169;-92
2023/05/22 11:56:21;;;;;;;6.32;3.67;;;;;;;;;;6284214;22;20146;-92
2023/05/22 11:59:27;;;;;;;8.98;3.63;;;;;;;;;;6265138;22;20193;-91
2023/05/22 12:02:35;;;;;;;8.73;3.70;;;;;;;;;;6263595;22;20161;-92
2023/05/22 12:05:42;;;;;;;6.40;3.55;;;;;;;;;;6284336;22;20211;-92
2023/05/22 12:08:47;;;;;;;4.50;3.40;;;;;;;;;;6267909;22;20162;-90
2023/05/22 12:15:16;;;;;;;5.93;4.03;;;;;;;;;;6269966;22;20166;-91
2023/05/22 12:18:40;;;;;;;5.50;3.50;;;;;;;;;;6267189;22;20185;-91
2023/05/22 13:17:12;;;;;;;5.25;3.35;;;;;;;;;;6309142;22;20663;-91
2023/05/22 13:20:18;;;;;;;8.32;3.72;;;;;;;;;;6325196;22;20191;-92
2023/05/22 13:23:23;;;;;;;5.95;3.50;;;;;;;;;;6323624;22;20160;-91
2023/05/22 13:26:30;;;;;;;5.43;3.33;;;;;;;;;;6324455;22;20160;-91
2023/05/22 13:29:36;;;;;;;5.90;3.60;;;;;;;;;;6306236;22;20152;-93
2023/05/22 13:32:44;;;;;;;5.78;3.60;;;;;;;;;;6324750;22;20489;-93
2023/05/22 13:35:50;;;;;;;5.80;3.65;;;;;;;;;;6323548;22;20164;-93
2023/05/22 13:38:58;;;;;;;8.20;3.80;;;;;;;;;;6306826;22;20232;-93
2023/05/22 13:42:04;;;;;;;9.85;3.78;;;;;;;;;;6325296;22;20167;-91
2023/05/22 13:45:10;;;;;;;5.47;3.58;;;;;;;;;;6323113;22;20224;-92
2023/05/22 13:48:17;;;;;;;10.98;5.15;;;;;;;;;;6322768;22;20165;-93
2023/05/22 13:51:22;;;;;;;6.25;3.47;;;;;;;;;;6323139;22;20681;-92
2023/05/22 13:54:27;;;;;;;7.20;3.83;;;;;;;;;;6322330;22;20236;-91
2023/05/22 13:57:32;;;;;;;6.20;3.58;;;;;;;;;;6323973;22;20311;-93
2023/05/22 14:00:37;;;;;;;7.50;3.60;;;;;;;;;;6324366;22;20192;-90
2023/05/22 14:03:44;;;;;;;6.05;3.53;;;;;;;;;;6324428;22;20172;-92
2023/05/22 14:06:50;;;;;;;8.75;4.30;;;;;;;;;;6308525;22;20184;-89
2023/05/22 14:09:58;;;;;;;5.43;3.22;;;;;;;;;;6307152;22;20168;-93
2023/05/22 14:13:05;;;;;;;13.75;4.97;;;;;;;;;;6327465;22;20171;-91
2023/05/22 14:16:10;;;;;;;7.07;3.60;;;;;;;;;;6306636;22;20185;-92
2023/05/22 14:19:17;;;;;;;8.30;3.88;;;;;;;;;;6322272;22;20188;-92
2023/05/22 14:22:30;;;;;;;5.90;4.32;;;;;;;;;;6322385;22;20176;-92
2023/05/22 14:25:35;;;;;;;10.50;4.03;;;;;;;;;;6305308;22;20164;-90
2023/05/22 14:32:59;;;;;;;15.57;3.92;;;;;;;;;;6325808;22;20155;-93
2023/05/22 14:36:18;;;;;;;8.70;4.25;;;;;;;;;;6324676;22;20156;-90
2023/05/22 14:39:24;;;;;;;6.30;3.53;;;;;;;;;;6325153;22;20181;-93
2023/05/22 14:42:30;;;;;;;6.80;3.80;;;;;;;;;;6325956;22;20226;-92
2023/05/22 14:45:35;;;;;;;5.95;4.47;;;;;;;;;;6329041;22;20184;-91
2023/05/22 14:48:40;;;;;;;7.15;4.03;;;;;;;;;;6324075;22;20533;-90
2023/05/22 14:51:51;;;;;;;5.68;4.18;;;;;;;;;;6323678;22;20217;-89
2023/05/22 14:54:57;;;;;;;10.13;3.83;;;;;;;;;;6321161;22;20147;-91
2023/05/22 14:58:02;;;;;;;15.38;4.25;;;;;;;;;;6323193;22;20258;-92
2023/05/22 15:01:08;;;;;;;8.27;4.05;;;;;;;;;;6323335;22;20215;-92
2023/05/22 15:04:13;;;;;;;8.55;4.20;;;;;;;;;;6326388;22;20235;-92
2023/05/22 15:07:20;;;;;;;8.15;4.30;;;;;;;;;;6325360;22;20156;-90
2023/05/22 15:10:26;;;;;;;7.75;4.32;;;;;;;;;;6327173;22;20164;-90
2023/05/22 15:13:32;;;;;;;8.43;4.60;;;;;;;;;;6325490;22;20168;-90
2023/05/22 15:16:38;;;;;;;7.47;4.55;;;;;;;;;;6326944;22;20256;-90
2023/05/22 15:19:44;;;;;;;6.32;3.85;;;;;;;;;;6322291;22;20655;-90
2023/05/22 15:22:52;;;;;;;8.60;4.03;;;;;;;;;;6303751;22;20168;-90
2023/05/22 15:25:58;;;;;;;9.18;4.35;;;;;;;;;;6321544;22;20168;-91
2023/05/22 15:29:25;;;;;;;4.78;3.67;;;;;;;;;;6323190;22;20164;-90
2023/05/22 15:32:36;;;;;;;8.02;4.15;;;;;;;;;;6325084;22;20169;-92
2023/05/22 15:35:43;;;;;;;10.45;4.38;;;;;;;;;;6324289;22;20314;-91
2023/05/22 15:38:49;;;;;;;8.48;4.30;;;;;;;;;;6323018;22;20218;-92
2023/05/22 15:41:55;;;;;;;8.45;4.10;;;;;;;;;;6321539;22;20211;-92
2023/05/22 15:45:00;;;;;;;13.52;4.47;;;;;;;;;;6322099;22;20161;-91
2023/05/22 15:48:06;;;;;;;7.07;4.38;;;;;;;;;;6302016;22;20491;-91
2023/05/22 15:51:11;;;;;;;6.55;4.38;;;;;;;;;;6320293;22;20220;-92
2023/05/22 15:54:18;;;;;;;9.05;4.10;;;;;;;;;;6318973;22;20165;-90
2023/05/22 15:57:23;;;;;;;6.78;4.57;;;;;;;;;;6320454;22;20192;-92
2023/05/22 16:00:28;;;;;;;8.98;4.30;;;;;;;;;;6304948;22;20180;-92
2023/05/22 16:03:34;;;;;;;12.25;5.10;;;;;;;;;;6322252;22;20208;-91
2023/05/22 16:06:39;;;;;;;7.50;4.30;;;;;;;;;;6325500;22;20157;-90
2023/05/22 16:09:49;;;;;;;8.15;3.95;;;;;;;;;;6305444;22;20165;-91
2023/05/22 16:12:54;;;;;;;6.88;4.20;;;;;;;;;;6322338;22;20153;-91
2023/05/22 16:16:00;;;;;;;9.20;4.25;;;;;;;;;;6306042;22;20219;-91
2023/05/22 16:19:05;;;;;;;8.45;4.28;;;;;;;;;;6326905;22;20153;-91
2023/05/22 16:22:11;;;;;;;10.10;4.60;;;;;;;;;;6326854;22;20723;-92
2023/05/22 16:25:18;;;;;;;8.15;4.10;;;;;;;;;;6327016;22;20217;-91
2023/05/22 16:28:23;;;;;;;7.90;4.53;;;;;;;;;;6309611;22;20189;-91
2023/05/22 16:31:28;;;;;;;10.02;5.10;;;;;;;;;;6325958;22;20161;-91
2023/05/22 16:34:35;;;;;;;14.43;4.72;;;;;;;;;;6326412;22;20169;-89
2023/05/22 16:37:41;;;;;;;7.68;4.45;;;;;;;;;;6308685;22;20172;-91
2023/05/22 16:40:48;;;;;;;11.55;4.95;;;;;;;;;;6325047;22;20193;-90
2023/05/22 16:43:54;;;;;;;9.75;4.30;;;;;;;;;;6324441;22;20169;-89
2023/05/22 16:46:59;;;;;;;10.38;4.80;;;;;;;;;;6323974;22;20161;-89
2023/05/22 16:50:05;;;;;;;7.63;4.68;;;;;;;;;;6322136;22;20180;-92
2023/05/22 16:56:58;;;;;;;9.00;4.55;;;;;;;;;;6324862;22;20184;-88
2023/05/22 17:00:05;;;;;;;12.48;4.70;;;;;;;;;;6324146;22;20355;-92
2023/05/22 17:03:11;;;;;;;9.20;4.28;;;;;;;;;;6324280;22;20164;-91
2023/05/22 17:06:26;;;;;;;12.95;4.80;;;;;;;;;;6327620;22;20188;-91
2023/05/22 17:09:32;;;;;;;8.15;4.68;;;;;;;;;;6324809;22;20169;-90
2023/05/22 17:12:38;;;;;;;9.50;5.20;;;;;;;;;;6324517;22;20161;-90
2023/05/22 17:15:44;;;;;;;10.48;4.88;;;;;;;;;;6307710;22;20244;-91
2023/05/22 17:18:55;;;;;;;12.80;5.45;;;;;;;;;;6324792;22;20235;-92
2023/05/22 17:22:15;;;;;;;12.48;6.43;;;;;;;;;;6326369;22;20181;-92
2023/05/22 17:25:53;;;;;;;17.52;8.02;;;;;;;;;;6307222;22;20153;-89
2023/05/22 17:29:05;;;;;;;15.27;7.55;;;;;;;;;;6325896;22;20165;-90
2023/05/22 17:32:10;;;;;;;31.05;22.80;;;;;;;;;;6326355;22;20172;-90
2023/05/22 17:35:16;;;;;;;22.98;14.50;;;;;;;;;;6325602;22;20161;-91
2023/05/22 17:38:21;;;;;;;14.88;6.72;;;;;;;;;;6325855;22;20169;-91
2023/05/22 17:41:26;;;;;;;10.48;5.68;;;;;;;;;;6327728;22;20180;-89
2023/05/22 17:44:36;;;;;;;11.68;5.60;;;;;;;;;;6327398;22;20196;-92
2023/05/22 17:47:41;;;;;;;11.10;5.10;;;;;;;;;;6325435;22;20148;-90
2023/05/22 17:50:47;;;;;;;12.90;5.63;;;;;;;;;;6325542;22;20227;-90
2023/05/22 17:53:54;;;;;;;15.30;6.55;;;;;;;;;;6324660;22;20161;-90
2023/05/22 17:57:01;;;;;;;12.30;6.43;;;;;;;;;;6305407;22;20148;-89
2023/05/22 18:00:10;;;;;;;13.18;6.13;;;;;;;;;;6308080;22;20208;-91
2023/05/22 18:03:23;;;;;;;10.90;5.97;;;;;;;;;;6329014;22;20205;-91
2023/05/22 18:06:32;;;;;;;10.07;5.38;;;;;;;;;;6310645;22;20220;-90
2023/05/22 18:09:38;;;;;;;10.52;6.40;;;;;;;;;;6327672;22;20168;-90
2023/05/22 18:12:43;;;;;;;9.13;5.32;;;;;;;;;;6310251;22;20165;-92
2023/05/22 18:15:51;;;;;;;8.38;5.60;;;;;;;;;;6311420;22;20184;-91
2023/05/22 18:19:31;;;;;;;12.80;5.30;;;;;;;;;;6326188;22;20237;-91
2023/05/22 18:22:38;;;;;;;11.32;6.13;;;;;;;;;;6313407;22;20169;-92
2023/05/22 18:25:43;;;;;;;14.27;6.22;;;;;;;;;;6326568;22;20149;-90
2023/05/22 18:28:49;;;;;;;16.33;6.30;;;;;;;;;;6309485;22;20165;-91
2023/05/22 18:31:56;;;;;;;10.55;6.70;;;;;;;;;;6327153;22;20216;-91
2023/05/22 18:35:03;;;;;;;12.45;6.63;;;;;;;;;;6309952;22;20180;-90
2023/05/22 18:38:09;;;;;;;14.02;5.88;;;;;;;;;;6326299;22;20173;-90
2023/05/22 18:41:15;;;;;;;12.43;6.22;;;;;;;;;;6308740;22;20175;-92
2023/05/22 18:44:22;;;;;;;11.93;6.00;;;;;;;;;;6326704;22;20164;-91
2023/05/22 18:47:29;;;;;;;19.95;6.43;;;;;;;;;;6326265;22;20272;-90
2023/05/22 18:50:34;;;;;;;11.27;6.35;;;;;;;;;;6326809;22;20161;-91
2023/05/22 18:53:42;;;;;;;11.32;6.07;;;;;;;;;;6326859;22;20184;-89
2023/05/22 18:56:48;;;;;;;12.38;6.13;;;;;;;;;;6326499;22;20153;-90
2023/05/22 18:59:53;;;;;;;12.98;6.55;;;;;;;;;;6308433;22;20180;-90
2023/05/22 19:03:00;;;;;;;11.52;6.40;;;;;;;;;;6332362;22;20165;-90
2023/05/22 19:06:07;;;;;;;13.68;6.50;;;;;;;;;;6329425;22;20165;-92
